sensor_id;sensor_type;location;lat;lon;timestamp;pressure;altitude;pressure_sealevel;temperature;humidity
55540;BME280;41384;51.418;7.286;2023-04-01T00:01:53;97634.16;;;10.11;100.00
55540;BME280;41384;51.418;7.286;2023-04-01T00:04:18;97626.25;;;10.11;100.00
55540;BME280;41384;51.418;7.286;2023-04-01T00:06:45;97624.13;;;10.08;100.00
55540;BME280;41384;51.418;7.286;2023-04-01T00:09:12;97613.16;;;10.21;100.00
55540;BME280;41384;51.418;7.286;2023-04-01T00:11:37;97631.34;;;10.23;100.00
55540;BME280;41384;51.418;7.286;2023-04-01T00:14:03;97627.41;;;10.26;100.00
55540;BME280;41384;51.418;7.286;2023-04-01T00:16:29;97621.06;;;10.21;100.00
55540;BME280;41384;51.418;7.286;2023-04-01T00:18:54;97623.94;;;10.20;100.00
55540;BME280;41384;51.418;7.286;2023-04-01T00:21:20;97631.59;;;10.16;100.00
55540;BME280;41384;51.418;7.286;2023-04-01T00:23:45;97618.13;;;10.13;100.00
55540;BME280;41384;51.418;7.286;2023-04-01T00:26:11;97629.97;;;10.15;100.00
55540;BME280;41384;51.418;7.286;2023-04-01T00:28:37;97611.50;;;10.10;100.00
55540;BME280;41384;51.418;7.286;2023-04-01T00:31:09;97618.94;;;10.18;100.00
55540;BME280;41384;51.418;7.286;2023-04-01T00:33:34;97631.28;;;10.07;100.00
55540;BME280;41384;51.418;7.286;2023-04-01T00:36:11;97625.53;;;10.21;100.00
55540;BME280;41384;51.418;7.286;2023-04-01T00:38:37;97614.16;;;10.15;100.00
55540;BME280;41384;51.418;7.286;2023-04-01T00:41:04;97605.25;;;10.21;100.00
55540;BME280;41384;51.418;7.286;2023-04-01T00:43:30;97621.56;;;10.18;100.00
55540;BME280;41384;51.418;7.286;2023-04-01T00:45:56;97612.31;;;10.16;100.00
55540;BME280;41384;51.418;7.286;2023-04-01T00:48:28;97617.84;;;10.14;100.00
55540;BME280;41384;51.418;7.286;2023-04-01T00:51:04;97614.13;;;10.10;100.00
55540;BME280;41384;51.418;7.286;2023-04-01T00:53:31;97618.09;;;10.07;100.00
55540;BME280;41384;51.418;7.286;2023-04-01T00:56:05;97610.19;;;10.07;100.00
55540;BME280;41384;51.418;7.286;2023-04-01T00:58:35;97613.56;;;10.03;100.00
55540;BME280;41384;51.418;7.286;2023-04-01T01:01:02;97605.94;;;10.01;100.00
55540;BME280;41384;51.418;7.286;2023-04-01T01:03:28;97600.13;;;9.99;100.00
55540;BME280;41384;51.418;7.286;2023-04-01T01:06:10;97610.97;;;10.08;100.00
55540;BME280;41384;51.418;7.286;2023-04-01T01:11:29;97617.47;;;9.85;100.00
55540;BME280;41384;51.418;7.286;2023-04-01T01:14:02;97611.38;;;9.84;100.00
55540;BME280;41384;51.418;7.286;2023-04-01T01:16:41;97611.19;;;9.96;100.00
55540;BME280;41384;51.418;7.286;2023-04-01T01:19:38;97607.00;;;10.05;100.00
55540;BME280;41384;51.418;7.286;2023-04-01T01:27:39;97601.75;;;10.11;100.00
55540;BME280;41384;51.418;7.286;2023-04-01T01:30:32;97599.09;;;10.00;100.00
55540;BME280;41384;51.418;7.286;2023-04-01T01:33:13;97600.66;;;10.01;100.00
55540;BME280;41384;51.418;7.286;2023-04-01T01:35:50;97594.88;;;10.04;100.00
55540;BME280;41384;51.418;7.286;2023-04-01T01:38:21;97590.38;;;10.00;100.00
55540;BME280;41384;51.418;7.286;2023-04-01T01:40:49;97588.00;;;9.98;100.00
55540;BME280;41384;51.418;7.286;2023-04-01T01:43:22;97584.56;;;9.98;100.00
55540;BME280;41384;51.418;7.286;2023-04-01T01:45:53;97590.88;;;9.97;100.00
55540;BME280;41384;51.418;7.286;2023-04-01T01:48:20;97591.72;;;10.02;100.00
55540;BME280;41384;51.418;7.286;2023-04-01T01:50:46;97589.59;;;9.99;100.00
55540;BME280;41384;51.418;7.286;2023-04-01T01:53:13;97588.03;;;10.03;100.00
55540;BME280;41384;51.418;7.286;2023-04-01T01:55:41;97592.22;;;9.94;100.00
55540;BME280;41384;51.418;7.286;2023-04-01T01:58:27;97596.97;;;9.97;100.00
55540;BME280;41384;51.418;7.286;2023-04-01T02:00:57;97589.31;;;10.01;100.00
55540;BME280;41384;51.418;7.286;2023-04-01T02:03:25;97601.69;;;9.95;100.00
55540;BME280;41384;51.418;7.286;2023-04-01T02:05:55;97605.97;;;10.06;100.00
55540;BME280;41384;51.418;7.286;2023-04-01T02:08:25;97599.63;;;10.07;100.00
55540;BME280;41384;51.418;7.286;2023-04-01T02:11:04;97591.72;;;10.07;100.00
55540;BME280;41384;51.418;7.286;2023-04-01T02:16:11;97591.66;;;9.92;100.00
55540;BME280;41384;51.418;7.286;2023-04-01T02:18:39;97595.41;;;10.01;100.00
55540;BME280;41384;51.418;7.286;2023-04-01T02:21:05;97595.91;;;9.98;100.00
55540;BME280;41384;51.418;7.286;2023-04-01T02:23:34;97603.75;;;9.83;100.00
55540;BME280;41384;51.418;7.286;2023-04-01T02:26:01;97601.41;;;9.91;100.00
55540;BME280;41384;51.418;7.286;2023-04-01T02:28:28;97592.97;;;9.89;100.00
55540;BME280;41384;51.418;7.286;2023-04-01T02:30:55;97590.38;;;10.00;100.00
55540;BME280;41384;51.418;7.286;2023-04-01T02:33:22;97592.97;;;9.95;100.00
55540;BME280;41384;51.418;7.286;2023-04-01T02:35:47;97583.47;;;9.88;100.00
55540;BME280;41384;51.418;7.286;2023-04-01T02:38:13;97582.41;;;9.89;100.00
55540;BME280;41384;51.418;7.286;2023-04-01T02:40:49;97581.06;;;9.76;100.00
55540;BME280;41384;51.418;7.286;2023-04-01T02:43:15;97585.53;;;9.81;100.00
55540;BME280;41384;51.418;7.286;2023-04-01T02:45:41;97586.56;;;9.75;100.00
55540;BME280;41384;51.418;7.286;2023-04-01T02:48:07;97583.19;;;9.80;100.00
55540;BME280;41384;51.418;7.286;2023-04-01T02:50:33;97579.97;;;9.72;100.00
55540;BME280;41384;51.418;7.286;2023-04-01T02:52:58;97576.25;;;9.68;100.00
55540;BME280;41384;51.418;7.286;2023-04-01T02:55:23;97585.50;;;9.71;100.00
55540;BME280;41384;51.418;7.286;2023-04-01T02:57:48;97583.16;;;9.74;100.00
55540;BME280;41384;51.418;7.286;2023-04-01T03:00:14;97583.72;;;9.82;100.00
55540;BME280;41384;51.418;7.286;2023-04-01T03:02:40;97581.81;;;9.72;100.00
55540;BME280;41384;51.418;7.286;2023-04-01T03:05:06;97587.13;;;9.82;100.00
55540;BME280;41384;51.418;7.286;2023-04-01T03:07:32;97594.78;;;9.84;100.00
55540;BME280;41384;51.418;7.286;2023-04-01T03:09:57;97595.06;;;9.87;100.00
55540;BME280;41384;51.418;7.286;2023-04-01T03:12:22;97594.44;;;9.70;100.00
55540;BME280;41384;51.418;7.286;2023-04-01T03:14:47;97593.69;;;9.74;100.00
55540;BME280;41384;51.418;7.286;2023-04-01T03:17:13;97593.44;;;9.81;100.00
55540;BME280;41384;51.418;7.286;2023-04-01T03:19:38;97594.78;;;9.84;100.00
55540;BME280;41384;51.418;7.286;2023-04-01T03:22:03;97590.59;;;9.88;100.00
55540;BME280;41384;51.418;7.286;2023-04-01T03:24:28;97597.66;;;9.82;100.00
55540;BME280;41384;51.418;7.286;2023-04-01T03:26:54;97591.50;;;9.66;100.00
55540;BME280;41384;51.418;7.286;2023-04-01T03:29:19;97589.75;;;9.77;100.00
55540;BME280;41384;51.418;7.286;2023-04-01T03:31:45;97593.69;;;9.74;100.00
55540;BME280;41384;51.418;7.286;2023-04-01T03:34:10;97599.22;;;9.78;100.00
55540;BME280;41384;51.418;7.286;2023-04-01T03:36:35;97609.44;;;9.69;100.00
55540;BME280;41384;51.418;7.286;2023-04-01T03:39:01;97600.25;;;9.72;100.00
55540;BME280;41384;51.418;7.286;2023-04-01T03:41:26;97604.69;;;9.66;100.00
55540;BME280;41384;51.418;7.286;2023-04-01T03:43:53;97607.81;;;9.63;100.00
55540;BME280;41384;51.418;7.286;2023-04-01T03:46:19;97609.16;;;9.60;100.00
55540;BME280;41384;51.418;7.286;2023-04-01T03:48:44;97622.31;;;9.60;100.00
55540;BME280;41384;51.418;7.286;2023-04-01T03:51:10;97608.13;;;9.67;100.00
55540;BME280;41384;51.418;7.286;2023-04-01T03:53:35;97615.53;;;9.70;100.00
55540;BME280;41384;51.418;7.286;2023-04-01T03:56:05;97614.47;;;9.71;100.00
55540;BME280;41384;51.418;7.286;2023-04-01T03:58:31;97611.31;;;9.74;100.00
55540;BME280;41384;51.418;7.286;2023-04-01T04:00:56;97611.38;;;9.84;100.00
55540;BME280;41384;51.418;7.286;2023-04-01T04:03:21;97623.75;;;9.78;100.00
55540;BME280;41384;51.418;7.286;2023-04-01T04:05:47;97620.28;;;9.73;100.00
55540;BME280;41384;51.418;7.286;2023-04-01T04:08:13;97621.88;;;9.74;100.00
55540;BME280;41384;51.418;7.286;2023-04-01T04:10:38;97632.09;;;9.70;100.00
55540;BME280;41384;51.418;7.286;2023-04-01T04:13:04;97621.09;;;9.73;100.00
55540;BME280;41384;51.418;7.286;2023-04-01T04:15:30;97629.78;;;9.79;100.00
55540;BME280;41384;51.418;7.286;2023-04-01T04:17:55;97632.19;;;9.81;100.00
55540;BME280;41384;51.418;7.286;2023-04-01T04:20:20;97640.38;;;9.89;100.00
55540;BME280;41384;51.418;7.286;2023-04-01T04:22:46;97628.50;;;9.82;100.00
55540;BME280;41384;51.418;7.286;2023-04-01T04:25:11;97636.13;;;9.78;100.00
55540;BME280;41384;51.418;7.286;2023-04-01T04:27:36;97639.03;;;9.82;100.00
55540;BME280;41384;51.418;7.286;2023-04-01T04:30:02;97636.97;;;9.89;100.00
55540;BME280;41384;51.418;7.286;2023-04-01T04:32:28;97636.19;;;9.93;100.00
55540;BME280;41384;51.418;7.286;2023-04-01T04:34:53;97638.03;;;9.88;100.00
55540;BME280;41384;51.418;7.286;2023-04-01T04:37:18;97639.78;;;9.77;100.00
55540;BME280;41384;51.418;7.286;2023-04-01T04:39:43;97634.03;;;9.85;100.00
55540;BME280;41384;51.418;7.286;2023-04-01T04:42:09;97642.50;;;9.87;100.00
55540;BME280;41384;51.418;7.286;2023-04-01T04:44:34;97645.09;;;9.82;100.00
55540;BME280;41384;51.418;7.286;2023-04-01T04:47:01;97640.63;;;9.83;100.00
55540;BME280;41384;51.418;7.286;2023-04-01T04:49:26;97647.19;;;9.80;100.00
55540;BME280;41384;51.418;7.286;2023-04-01T04:51:51;97644.84;;;9.84;100.00
55540;BME280;41384;51.418;7.286;2023-04-01T04:54:17;97649.88;;;9.90;100.00
55540;BME280;41384;51.418;7.286;2023-04-01T04:56:42;97647.78;;;9.92;100.00
55540;BME280;41384;51.418;7.286;2023-04-01T04:59:08;97650.66;;;9.86;100.00
55540;BME280;41384;51.418;7.286;2023-04-01T05:01:33;97649.34;;;9.88;100.00
55540;BME280;41384;51.418;7.286;2023-04-01T05:03:58;97657.78;;;9.90;100.00
55540;BME280;41384;51.418;7.286;2023-04-01T05:06:24;97657.78;;;9.90;100.00
55540;BME280;41384;51.418;7.286;2023-04-01T05:08:50;97659.88;;;9.88;100.00
55540;BME280;41384;51.418;7.286;2023-04-01T05:11:18;97663.31;;;9.89;100.00
55540;BME280;41384;51.418;7.286;2023-04-01T05:13:44;97658.06;;;9.89;100.00
55540;BME280;41384;51.418;7.286;2023-04-01T05:16:11;97657.72;;;9.80;100.00
55540;BME280;41384;51.418;7.286;2023-04-01T05:18:37;97667.56;;;9.90;100.00
55540;BME280;41384;51.418;7.286;2023-04-01T05:21:02;97665.16;;;9.88;100.00
55540;BME280;41384;51.418;7.286;2023-04-01T05:23:28;97668.38;;;10.01;100.00
55540;BME280;41384;51.418;7.286;2023-04-01T05:25:53;97665.72;;;9.96;100.00
55540;BME280;41384;51.418;7.286;2023-04-01T05:28:19;97665.44;;;9.92;100.00
55540;BME280;41384;51.418;7.286;2023-04-01T05:30:45;97661.78;;;9.98;100.00
55540;BME280;41384;51.418;7.286;2023-04-01T05:33:11;97670.97;;;9.90;100.00
55540;BME280;41384;51.418;7.286;2023-04-01T05:35:37;97664.94;;;9.95;100.00
55540;BME280;41384;51.418;7.286;2023-04-01T05:38:03;97673.41;;;10.02;100.00
55540;BME280;41384;51.418;7.286;2023-04-01T05:40:29;97677.06;;;9.96;100.00
55540;BME280;41384;51.418;7.286;2023-04-01T05:42:54;97673.16;;;10.04;100.00
55540;BME280;41384;51.418;7.286;2023-04-01T05:45:20;97672.84;;;9.95;100.00
55540;BME280;41384;51.418;7.286;2023-04-01T05:47:45;97675.16;;;9.86;100.00
55540;BME280;41384;51.418;7.286;2023-04-01T05:50:11;97668.34;;;9.96;100.00
55540;BME280;41384;51.418;7.286;2023-04-01T05:52:37;97676.50;;;9.89;100.00
55540;BME280;41384;51.418;7.286;2023-04-01T05:55:03;97683.34;;;9.90;100.00
55540;BME280;41384;51.418;7.286;2023-04-01T05:57:29;97682.31;;;9.91;100.00
55540;BME280;41384;51.418;7.286;2023-04-01T05:59:54;97678.63;;;9.92;100.00
55540;BME280;41384;51.418;7.286;2023-04-01T06:02:19;97690.78;;;9.98;100.00
55540;BME280;41384;51.418;7.286;2023-04-01T06:04:45;97681.59;;;10.06;100.00
55540;BME280;41384;51.418;7.286;2023-04-01T06:07:12;97684.19;;;10.01;100.00
55540;BME280;41384;51.418;7.286;2023-04-01T06:09:37;97686.06;;;10.00;100.00
55540;BME280;41384;51.418;7.286;2023-04-01T06:12:25;97688.94;;;9.99;100.00
55540;BME280;41384;51.418;7.286;2023-04-01T06:20:28;97697.41;;;10.06;100.00
55540;BME280;41384;51.418;7.286;2023-04-01T06:25:59;97692.63;;;9.98;100.00
55540;BME280;41384;51.418;7.286;2023-04-01T06:28:42;97702.06;;;9.93;100.00
55540;BME280;41384;51.418;7.286;2023-04-01T06:31:33;97704.50;;;10.00;100.00
55540;BME280;41384;51.418;7.286;2023-04-01T06:34:17;97699.03;;;10.12;100.00
55540;BME280;41384;51.418;7.286;2023-04-01T06:37:05;97706.66;;;10.08;100.00
55540;BME280;41384;51.418;7.286;2023-04-01T06:39:45;97703.13;;;9.92;100.00
55540;BME280;41384;51.418;7.286;2023-04-01T06:47:52;97716.34;;;9.98;100.00
55540;BME280;41384;51.418;7.286;2023-04-01T06:50:33;97715.03;;;10.00;100.00
55540;BME280;41384;51.418;7.286;2023-04-01T06:53:10;97712.72;;;10.09;100.00
55540;BME280;41384;51.418;7.286;2023-04-01T06:55:43;97715.63;;;10.07;100.00
55540;BME280;41384;51.418;7.286;2023-04-01T06:58:33;97720.94;;;10.18;100.00
55540;BME280;41384;51.418;7.286;2023-04-01T07:01:07;97719.84;;;10.08;100.00
55540;BME280;41384;51.418;7.286;2023-04-01T07:03:36;97714.59;;;10.14;100.00
55540;BME280;41384;51.418;7.286;2023-04-01T07:06:10;97724.41;;;10.24;100.00
55540;BME280;41384;51.418;7.286;2023-04-01T07:08:40;97721.69;;;10.13;100.00
55540;BME280;41384;51.418;7.286;2023-04-01T07:11:10;97726.47;;;10.16;100.00
55540;BME280;41384;51.418;7.286;2023-04-01T07:13:44;97731.97;;;10.10;100.00
55540;BME280;41384;51.418;7.286;2023-04-01T07:16:25;97727.22;;;10.12;100.00
55540;BME280;41384;51.418;7.286;2023-04-01T07:18:58;97732.31;;;10.18;100.00
55540;BME280;41384;51.418;7.286;2023-04-01T07:21:48;97728.00;;;10.12;100.00
55540;BME280;41384;51.418;7.286;2023-04-01T07:24:21;97727.25;;;10.17;100.00
55540;BME280;41384;51.418;7.286;2023-04-01T07:26:49;97741.00;;;10.19;100.00
55540;BME280;41384;51.418;7.286;2023-04-01T07:29:18;97743.94;;;10.28;100.00
55540;BME280;41384;51.418;7.286;2023-04-01T07:34:28;97746.59;;;10.28;100.00
55540;BME280;41384;51.418;7.286;2023-04-01T07:51:06;97753.47;;;10.34;100.00
55540;BME280;41384;51.418;7.286;2023-04-01T07:53:42;97752.63;;;10.28;100.00
55540;BME280;41384;51.418;7.286;2023-04-01T07:56:15;97753.69;;;10.27;100.00
55540;BME280;41384;51.418;7.286;2023-04-01T07:58:55;97759.22;;;10.26;100.00
55540;BME280;41384;51.418;7.286;2023-04-01T08:01:39;97764.22;;;10.27;100.00
55540;BME280;41384;51.418;7.286;2023-04-01T08:04:41;97769.91;;;10.41;100.00
55540;BME280;41384;51.418;7.286;2023-04-01T08:07:17;97779.16;;;10.49;100.00
55540;BME280;41384;51.418;7.286;2023-04-01T08:10:18;97774.41;;;10.51;100.00
55540;BME280;41384;51.418;7.286;2023-04-01T08:13:02;97778.41;;;10.59;100.00
55540;BME280;41384;51.418;7.286;2023-04-01T08:21:23;97790.03;;;10.58;100.00
55540;BME280;41384;51.418;7.286;2023-04-01T08:23:51;97785.50;;;10.53;100.00
55540;BME280;41384;51.418;7.286;2023-04-01T08:26:26;97787.31;;;10.42;100.00
55540;BME280;41384;51.418;7.286;2023-04-01T08:29:00;97789.88;;;10.37;100.00
55540;BME280;41384;51.418;7.286;2023-04-01T08:34:17;97792.81;;;10.41;100.00
55540;BME280;41384;51.418;7.286;2023-04-01T08:36:50;97792.50;;;10.32;100.00
55540;BME280;41384;51.418;7.286;2023-04-01T08:39:27;97805.41;;;10.33;100.00
55540;BME280;41384;51.418;7.286;2023-04-01T08:42:23;97802.63;;;10.45;100.00
55540;BME280;41384;51.418;7.286;2023-04-01T08:45:18;97807.88;;;10.40;100.00
55540;BME280;41384;51.418;7.286;2023-04-01T08:50:50;97815.50;;;10.42;100.00
55540;BME280;41384;51.418;7.286;2023-04-01T08:53:39;97817.44;;;10.19;100.00
55540;BME280;41384;51.418;7.286;2023-04-01T08:56:18;97817.53;;;10.34;100.00
55540;BME280;41384;51.418;7.286;2023-04-01T09:01:30;97825.72;;;10.33;100.00
55540;BME280;41384;51.418;7.286;2023-04-01T09:04:08;97830.66;;;10.24;100.00
55540;BME280;41384;51.418;7.286;2023-04-01T09:06:52;97837.53;;;10.25;100.00
55540;BME280;41384;51.418;7.286;2023-04-01T09:09:27;97837.34;;;10.37;100.00
55540;BME280;41384;51.418;7.286;2023-04-01T09:12:18;97840.09;;;10.47;100.00
55540;BME280;41384;51.418;7.286;2023-04-01T09:14:59;97836.94;;;10.50;100.00
55540;BME280;41384;51.418;7.286;2023-04-01T09:17:40;97841.94;;;10.52;100.00
55540;BME280;41384;51.418;7.286;2023-04-01T09:20:38;97849.28;;;10.45;100.00
55540;BME280;41384;51.418;7.286;2023-04-01T09:32:04;97860.00;;;10.33;100.00
55540;BME280;41384;51.418;7.286;2023-04-01T09:37:41;97865.88;;;10.40;100.00
55540;BME280;41384;51.418;7.286;2023-04-01T09:40:16;97870.03;;;10.36;100.00
55540;BME280;41384;51.418;7.286;2023-04-01T09:42:50;97876.09;;;10.36;100.00
55540;BME280;41384;51.418;7.286;2023-04-01T09:45:50;97862.38;;;10.34;100.00
55540;BME280;41384;51.418;7.286;2023-04-01T09:48:50;97870.34;;;10.40;100.00
55540;BME280;41384;51.418;7.286;2023-04-01T09:51:31;97875.31;;;10.36;100.00
55540;BME280;41384;51.418;7.286;2023-04-01T09:54:13;97882.72;;;10.39;100.00
55540;BME280;41384;51.418;7.286;2023-04-01T09:57:16;97894.81;;;10.35;100.00
55540;BME280;41384;51.418;7.286;2023-04-01T10:00:03;97887.75;;;10.41;100.00
55540;BME280;41384;51.418;7.286;2023-04-01T10:11:18;97890.44;;;10.46;100.00
55540;BME280;41384;51.418;7.286;2023-04-01T10:29:35;97905.69;;;10.76;100.00
55540;BME280;41384;51.418;7.286;2023-04-01T10:35:41;97908.81;;;10.68;100.00
55540;BME280;41384;51.418;7.286;2023-04-01T11:00:17;97926.84;;;10.87;100.00
55540;BME280;41384;51.418;7.286;2023-04-01T11:03:17;97924.19;;;10.82;100.00
55540;BME280;41384;51.418;7.286;2023-04-01T11:20:23;97931.03;;;10.77;100.00
55540;BME280;41384;51.418;7.286;2023-04-01T11:28:54;97948.41;;;10.73;100.00
55540;BME280;41384;51.418;7.286;2023-04-01T11:36:57;97949.84;;;10.86;100.00
55540;BME280;41384;51.418;7.286;2023-04-01T11:43:06;97966.75;;;10.90;100.00
55540;BME280;41384;51.418;7.286;2023-04-01T11:45:46;97976.78;;;10.88;100.00
55540;BME280;41384;51.418;7.286;2023-04-01T11:49:07;97965.19;;;10.94;100.00
55540;BME280;41384;51.418;7.286;2023-04-01T12:00:21;97988.41;;;10.92;100.00
55540;BME280;41384;51.418;7.286;2023-04-01T12:03:27;97998.75;;;10.99;100.00
55540;BME280;41384;51.418;7.286;2023-04-01T12:11:20;98006.16;;;11.02;100.00
55540;BME280;41384;51.418;7.286;2023-04-01T12:16:43;98010.75;;;11.17;100.00
55540;BME280;41384;51.418;7.286;2023-04-01T12:19:32;98008.63;;;11.14;100.00
55540;BME280;41384;51.418;7.286;2023-04-01T12:22:23;98005.88;;;10.99;100.00
55540;BME280;41384;51.418;7.286;2023-04-01T12:41:53;98037.59;;;10.71;100.00
55540;BME280;41384;51.418;7.286;2023-04-01T12:44:57;98042.72;;;10.83;100.00
55540;BME280;41384;51.418;7.286;2023-04-01T12:55:46;98052.59;;;10.98;100.00
55540;BME280;41384;51.418;7.286;2023-04-01T13:01:25;98054.22;;;11.04;100.00
55540;BME280;41384;51.418;7.286;2023-04-01T13:09:57;98074.13;;;11.17;100.00
55540;BME280;41384;51.418;7.286;2023-04-01T13:12:53;98074.34;;;11.11;100.00
55540;BME280;41384;51.418;7.286;2023-04-01T13:15:52;98069.06;;;11.11;100.00
55540;BME280;41384;51.418;7.286;2023-04-01T13:21:19;98080.03;;;10.97;100.00
55540;BME280;41384;51.418;7.286;2023-04-01T13:29:13;98085.81;;;10.94;100.00
55540;BME280;41384;51.418;7.286;2023-04-01T13:31:46;98089.81;;;10.97;100.00
55540;BME280;41384;51.418;7.286;2023-04-01T14:00:54;98123.25;;;10.91;100.00
55540;BME280;41384;51.418;7.286;2023-04-01T14:03:30;98120.00;;;10.78;100.00
55540;BME280;41384;51.418;7.286;2023-04-01T14:08:53;98132.09;;;10.74;100.00
55540;BME280;41384;51.418;7.286;2023-04-01T14:11:32;98137.19;;;10.81;100.00
55540;BME280;41384;51.418;7.286;2023-04-01T14:14:36;98135.81;;;10.78;100.00
55540;BME280;41384;51.418;7.286;2023-04-01T14:17:10;98141.47;;;10.87;100.00
55540;BME280;41384;51.418;7.286;2023-04-01T14:22:43;98142.78;;;10.90;100.00
55540;BME280;41384;51.418;7.286;2023-04-01T14:39:24;98155.44;;;10.88;100.00
55540;BME280;41384;51.418;7.286;2023-04-01T14:47:28;98162.56;;;10.87;100.00
55540;BME280;41384;51.418;7.286;2023-04-01T14:52:49;98161.25;;;10.90;100.00
55540;BME280;41384;51.418;7.286;2023-04-01T14:55:28;98172.88;;;10.89;100.00
55540;BME280;41384;51.418;7.286;2023-04-01T14:58:07;98165.91;;;10.77;100.00
55540;BME280;41384;51.418;7.286;2023-04-01T15:03:26;98173.88;;;10.83;100.00
55540;BME280;41384;51.418;7.286;2023-04-01T15:09:05;98185.47;;;10.82;100.00
55540;BME280;41384;51.418;7.286;2023-04-01T15:14:49;98199.25;;;10.61;100.00
55540;BME280;41384;51.418;7.286;2023-04-01T15:20:18;98202.28;;;10.75;100.00
55540;BME280;41384;51.418;7.286;2023-04-01T15:29:06;98215.44;;;10.70;100.00
55540;BME280;41384;51.418;7.286;2023-04-01T15:31:47;98211.31;;;10.79;100.00
55540;BME280;41384;51.418;7.286;2023-04-01T15:34:41;98213.72;;;10.81;100.00
55540;BME280;41384;51.418;7.286;2023-04-01T15:42:34;98225.06;;;10.82;100.00
55540;BME280;41384;51.418;7.286;2023-04-01T15:48:13;98232.31;;;10.91;100.00
55540;BME280;41384;51.418;7.286;2023-04-01T15:50:57;98232.75;;;10.83;100.00
55540;BME280;41384;51.418;7.286;2023-04-01T15:53:51;98228.75;;;10.80;100.00
55540;BME280;41384;51.418;7.286;2023-04-01T15:59:38;98237.25;;;10.88;100.00
55540;BME280;41384;51.418;7.286;2023-04-01T16:04:48;98241.75;;;10.87;100.00
55540;BME280;41384;51.418;7.286;2023-04-01T16:07:48;98246.78;;;10.89;100.00
55540;BME280;41384;51.418;7.286;2023-04-01T16:10:35;98249.06;;;10.80;100.00
55540;BME280;41384;51.418;7.286;2023-04-01T16:13:24;98260.41;;;10.80;100.00
55540;BME280;41384;51.418;7.286;2023-04-01T16:20:58;98255.13;;;10.80;100.00
55540;BME280;41384;51.418;7.286;2023-04-01T16:23:43;98266.50;;;10.81;100.00
55540;BME280;41384;51.418;7.286;2023-04-01T16:26:24;98266.00;;;10.84;100.00
55540;BME280;41384;51.418;7.286;2023-04-01T16:28:57;98262.00;;;10.82;100.00
55540;BME280;41384;51.418;7.286;2023-04-01T16:31:34;98267.53;;;10.80;100.00
55540;BME280;41384;51.418;7.286;2023-04-01T16:34:08;98274.66;;;10.79;100.00
55540;BME280;41384;51.418;7.286;2023-04-01T16:36:48;98280.97;;;10.78;100.00
55540;BME280;41384;51.418;7.286;2023-04-01T16:39:25;98275.25;;;10.87;100.00
55540;BME280;41384;51.418;7.286;2023-04-01T16:42:09;98283.13;;;10.82;100.00
55540;BME280;41384;51.418;7.286;2023-04-01T16:44:56;98286.81;;;10.80;100.00
55540;BME280;41384;51.418;7.286;2023-04-01T16:47:35;98292.34;;;10.79;100.00
55540;BME280;41384;51.418;7.286;2023-04-01T16:50:24;98285.63;;;10.71;100.00
55540;BME280;41384;51.418;7.286;2023-04-01T16:53:08;98295.47;;;10.76;100.00
55540;BME280;41384;51.418;7.286;2023-04-01T16:55:49;98301.31;;;10.78;100.00
55540;BME280;41384;51.418;7.286;2023-04-01T16:58:24;98312.44;;;10.63;100.00
55540;BME280;41384;51.418;7.286;2023-04-01T17:01:16;98304.44;;;10.75;100.00
55540;BME280;41384;51.418;7.286;2023-04-01T17:03:46;98305.22;;;10.75;100.00
55540;BME280;41384;51.418;7.286;2023-04-01T17:09:13;98314.25;;;10.79;100.00
55540;BME280;41384;51.418;7.286;2023-04-01T17:23:24;98338.13;;;10.68;100.00
55540;BME280;41384;51.418;7.286;2023-04-01T17:25:58;98331.72;;;10.63;100.00
55540;BME280;41384;51.418;7.286;2023-04-01T17:28:36;98344.19;;;10.68;100.00
55540;BME280;41384;51.418;7.286;2023-04-01T17:37:00;98356.09;;;10.71;100.00
55540;BME280;41384;51.418;7.286;2023-04-01T17:39:49;98356.81;;;10.66;100.00
55540;BME280;41384;51.418;7.286;2023-04-01T17:50:42;98372.41;;;10.68;100.00
55540;BME280;41384;51.418;7.286;2023-04-01T17:53:30;98374.25;;;10.67;100.00
55540;BME280;41384;51.418;7.286;2023-04-01T17:56:04;98384.56;;;10.69;100.00
55540;BME280;41384;51.418;7.286;2023-04-01T17:58:37;98387.84;;;10.59;100.00
55540;BME280;41384;51.418;7.286;2023-04-01T18:03:59;98394.66;;;10.72;100.00
55540;BME280;41384;51.418;7.286;2023-04-01T18:09:57;98399.09;;;10.71;100.00
55540;BME280;41384;51.418;7.286;2023-04-01T18:12:58;98414.31;;;10.47;100.00
55540;BME280;41384;51.418;7.286;2023-04-01T18:15:55;98408.72;;;10.60;100.00
55540;BME280;41384;51.418;7.286;2023-04-01T18:21:49;98420.06;;;10.61;100.00
55540;BME280;41384;51.418;7.286;2023-04-01T18:24:23;98424.31;;;10.62;100.00
55540;BME280;41384;51.418;7.286;2023-04-01T18:27:02;98426.47;;;10.65;100.00
55540;BME280;41384;51.418;7.286;2023-04-01T18:32:11;98439.50;;;10.72;100.00
55540;BME280;41384;51.418;7.286;2023-04-01T18:34:41;98434.38;;;10.65;100.00
55540;BME280;41384;51.418;7.286;2023-04-01T18:37:34;98445.34;;;10.74;100.00
55540;BME280;41384;51.418;7.286;2023-04-01T18:41:13;98445.25;;;10.69;100.00
55540;BME280;41384;51.418;7.286;2023-04-01T18:45:54;98458.28;;;10.58;100.00
55540;BME280;41384;51.418;7.286;2023-04-01T18:51:13;98469.31;;;10.72;100.00
55540;BME280;41384;51.418;7.286;2023-04-01T18:53:58;98468.69;;;10.65;100.00
55540;BME280;41384;51.418;7.286;2023-04-01T18:56:37;98467.72;;;10.71;100.00
55540;BME280;41384;51.418;7.286;2023-04-01T18:59:25;98476.69;;;10.70;100.00
55540;BME280;41384;51.418;7.286;2023-04-01T19:02:04;98475.97;;;10.75;100.00
55540;BME280;41384;51.418;7.286;2023-04-01T19:04:37;98482.91;;;10.64;100.00
55540;BME280;41384;51.418;7.286;2023-04-01T19:12:55;98500.59;;;10.63;100.00
55540;BME280;41384;51.418;7.286;2023-04-01T19:15:38;98497.41;;;10.61;100.00
55540;BME280;41384;51.418;7.286;2023-04-01T19:18:25;98505.69;;;10.53;100.00
55540;BME280;41384;51.418;7.286;2023-04-01T19:21:00;98507.56;;;10.70;100.00